createdAt,value
2018-03-20T01:42:48.327Z,57.14
2018-03-20T01:42:48.920Z,57.14
2018-03-20T01:42:49.500Z,57.04
2018-03-20T01:42:50.100Z,57.04
2018-03-20T01:42:50.698Z,57.23
2018-03-20T01:42:51.298Z,57.23
2018-03-20T01:42:51.899Z,57.14
2018-03-20T01:42:52.499Z,57.23
2018-03-20T01:43:45.980Z,52.98
2018-03-20T01:43:46.554Z,52.98
2018-03-20T01:43:47.152Z,52.88
2018-03-20T01:43:47.751Z,52.88
2018-03-20T01:43:48.352Z,52.98
2018-03-20T01:43:48.951Z,52.98
2018-03-20T01:43:49.557Z,52.98
2018-03-20T01:43:50.150Z,52.88
2018-03-20T01:44:43.634Z,54.02
2018-03-20T01:44:44.205Z,54.11
2018-03-20T01:44:44.805Z,53.92
2018-03-20T01:44:45.405Z,54.02
2018-03-20T01:44:46.006Z,54.02
2018-03-20T01:44:46.604Z,54.02
2018-03-20T01:44:47.204Z,53.74
2018-03-20T01:44:47.803Z,53.92
2018-03-20T01:45:42.321Z,53.55
2018-03-20T01:45:42.880Z,53.64
2018-03-20T01:45:43.482Z,54.02
2018-03-20T01:45:44.080Z,53.83
2018-03-20T01:45:44.680Z,54.02
2018-03-20T01:45:45.280Z,53.92
2018-03-20T01:45:45.882Z,54.02
2018-03-20T01:45:46.479Z,53.64
2018-03-20T01:46:40.985Z,53.36
2018-03-20T01:46:41.558Z,53.45
2018-03-20T01:46:42.157Z,53.07
2018-03-20T01:46:42.758Z,53.17
2018-03-20T01:46:43.356Z,53.07
2018-03-20T01:46:43.963Z,52.50
2018-03-20T01:46:44.556Z,52.88
2018-03-20T01:46:45.157Z,52.88
2018-03-20T01:47:39.660Z,51.46
2018-03-20T01:47:40.233Z,51.75
2018-03-20T01:47:40.833Z,51.65
2018-03-20T01:47:41.432Z,51.84
2018-03-20T01:47:42.032Z,51.56
2018-03-20T01:47:42.632Z,51.56
2018-03-20T01:47:43.234Z,51.75
2018-03-20T01:47:43.831Z,51.56
2018-03-20T01:48:38.335Z,51.65
2018-03-20T01:48:38.908Z,51.84
2018-03-20T01:48:39.507Z,51.84
2018-03-20T01:48:40.109Z,51.84
2018-03-20T01:48:40.712Z,51.65
2018-03-20T01:48:41.309Z,51.75
2018-03-20T01:48:41.907Z,51.56
2018-03-20T01:48:42.510Z,51.84
2018-03-20T01:49:35.990Z,51.56
2018-03-20T01:49:36.562Z,51.65
2018-03-20T01:49:37.162Z,51.37
2018-03-20T01:49:37.761Z,51.56
2018-03-20T01:49:38.361Z,51.56
2018-03-20T01:49:38.961Z,51.46
2018-03-20T01:49:39.561Z,51.46
2018-03-20T01:49:40.161Z,51.37
2018-03-20T01:50:33.642Z,51.46
2018-03-20T01:50:34.214Z,51.56
2018-03-20T01:50:34.814Z,51.46
2018-03-20T01:50:35.413Z,51.75
2018-03-20T01:50:36.014Z,51.75
2018-03-20T01:50:36.616Z,51.75
2018-03-20T01:50:37.212Z,51.75
2018-03-20T01:50:37.811Z,51.75
2018-03-20T01:51:32.316Z,50.42
2018-03-20T01:51:32.891Z,50.14
2018-03-20T01:51:33.489Z,50.14
2018-03-20T01:51:34.090Z,50.23
2018-03-20T01:51:34.689Z,50.52
2018-03-20T01:51:35.289Z,50.14
2018-03-20T01:51:35.889Z,50.23
2018-03-20T01:51:36.489Z,50.26
2018-03-20T01:52:30.990Z,49.79
2018-03-20T01:52:31.565Z,49.57
2018-03-20T01:52:32.165Z,50.07
2018-03-20T01:52:32.769Z,49.66
2018-03-20T01:52:33.366Z,49.79
2018-03-20T01:52:33.966Z,49.76
2018-03-20T01:52:34.565Z,49.66
2018-03-20T01:52:35.163Z,49.79
2018-03-20T01:53:29.675Z,48.72
2018-03-20T01:53:30.241Z,48.72
2018-03-20T01:53:30.840Z,48.72
2018-03-20T01:53:31.441Z,48.72
2018-03-20T01:53:32.040Z,48.74
2018-03-20T01:53:32.640Z,48.93
2018-03-20T01:53:33.239Z,48.91
2018-03-20T01:53:33.840Z,49.12
2018-03-20T01:54:27.321Z,47.89
2018-03-20T01:54:27.893Z,47.89
2018-03-20T01:54:28.499Z,47.99
2018-03-20T01:54:29.103Z,48.08
2018-03-20T01:54:29.694Z,47.99
2018-03-20T01:54:30.292Z,48.08
2018-03-20T01:54:30.893Z,47.99
2018-03-20T01:54:31.492Z,48.18
2018-03-20T01:55:25.999Z,47.61
2018-03-20T01:55:26.569Z,47.51
2018-03-20T01:55:27.168Z,47.51
2018-03-20T01:55:27.768Z,47.51
2018-03-20T01:55:28.368Z,47.51
2018-03-20T01:55:28.967Z,47.04
2018-03-20T01:55:29.567Z,47.42
2018-03-20T01:55:30.167Z,47.51
2018-03-20T01:56:23.655Z,47.04
2018-03-20T01:56:24.220Z,46.94
2018-03-20T01:56:24.819Z,46.85
2018-03-20T01:56:25.573Z,47.04
2018-03-20T01:56:26.023Z,46.94
2018-03-20T01:56:26.619Z,46.94
2018-03-20T01:56:27.224Z,46.85
2018-03-20T01:56:27.821Z,46.94
2018-03-20T01:57:21.300Z,46.85
2018-03-20T01:57:21.871Z,47.42
2018-03-20T01:57:22.473Z,47.42
2018-03-20T01:57:23.073Z,47.51
2018-03-20T01:57:23.672Z,47.42
2018-03-20T01:57:24.272Z,47.51
2018-03-20T01:57:24.872Z,47.51
2018-03-20T01:57:25.472Z,46.94
2018-03-20T01:58:19.975Z,47.61
2018-03-20T01:58:20.547Z,47.61
2018-03-20T01:58:21.147Z,47.61
2018-03-20T01:58:21.746Z,47.23
2018-03-20T01:58:22.349Z,47.13
2018-03-20T01:58:22.947Z,47.23
2018-03-20T01:58:23.546Z,47.23
2018-03-20T01:58:24.146Z,47.51
2018-03-20T01:59:17.628Z,46.94
2018-03-20T01:59:18.200Z,46.85
2018-03-20T01:59:18.800Z,46.85
2018-03-20T01:59:19.400Z,46.94
2018-03-20T01:59:19.999Z,46.85
2018-03-20T01:59:20.599Z,46.85
2018-03-20T01:59:21.199Z,46.85
2018-03-20T01:59:21.798Z,46.75
2018-03-20T02:00:16.306Z,46.19
2018-03-20T02:00:16.875Z,46.19
2018-03-20T02:00:17.477Z,46.09
2018-03-20T02:00:18.079Z,46.09
2018-03-20T02:00:18.674Z,46.19
2018-03-20T02:00:19.275Z,46.09
2018-03-20T02:00:19.874Z,46.28
2018-03-20T02:00:20.475Z,46.19
2018-03-20T02:01:14.979Z,46.47
2018-03-20T02:01:15.550Z,46.56
2018-03-20T02:01:16.150Z,46.47
2018-03-20T02:01:16.750Z,46.56
2018-03-20T02:01:17.350Z,46.37
2018-03-20T02:01:17.949Z,46.37
2018-03-20T02:01:18.549Z,46.37
2018-03-20T02:01:19.149Z,46.37
2018-03-20T02:02:13.656Z,46.66
2018-03-20T02:02:14.230Z,46.56
2018-03-20T02:02:14.827Z,46.66
2018-03-20T02:02:15.426Z,46.66
2018-03-20T02:02:16.026Z,46.85
2018-03-20T02:02:16.626Z,46.56
2018-03-20T02:02:17.226Z,46.56
2018-03-20T02:02:17.825Z,46.56
2018-03-20T02:03:12.330Z,46.47
2018-03-20T02:03:12.901Z,46.47
2018-03-20T02:03:13.503Z,46.19
2018-03-20T02:03:14.102Z,46.28
2018-03-20T02:03:14.702Z,46.28
2018-03-20T02:03:15.300Z,46.19
2018-03-20T02:03:15.904Z,46.19
2018-03-20T02:03:16.500Z,46.28
2018-03-20T02:04:11.005Z,46.19
2018-03-20T02:04:11.578Z,46.37
2018-03-20T02:04:12.180Z,46.28
2018-03-20T02:04:12.778Z,46.47
2018-03-20T02:04:13.377Z,46.47
2018-03-20T02:04:13.980Z,46.56
2018-03-20T02:04:14.580Z,46.47
2018-03-20T02:04:15.176Z,46.56
2018-03-20T02:05:09.682Z,47.04
2018-03-20T02:05:10.254Z,46.94
2018-03-20T02:05:10.854Z,47.13
2018-03-20T02:05:11.457Z,46.94
2018-03-20T02:05:12.053Z,47.23
2018-03-20T02:05:12.652Z,47.04
2018-03-20T02:05:13.259Z,47.61
2018-03-20T02:05:13.852Z,47.23
2018-03-20T02:06:08.358Z,46.19
2018-03-20T02:06:08.928Z,46.19
2018-03-20T02:06:09.530Z,46.19
2018-03-20T02:06:10.133Z,46.19
2018-03-20T02:06:10.728Z,46.28
2018-03-20T02:06:11.329Z,46.19
2018-03-20T02:06:11.928Z,46.28
2018-03-20T02:06:12.527Z,46.19
2018-03-20T02:07:06.013Z,46.85
2018-03-20T02:07:06.583Z,46.75
2018-03-20T02:07:07.181Z,46.85
2018-03-20T02:07:07.781Z,46.85
2018-03-20T02:07:08.384Z,46.75
2018-03-20T02:07:08.981Z,47.04
2018-03-20T02:07:09.582Z,47.04
2018-03-20T02:07:10.186Z,47.04
2018-03-20T02:08:03.664Z,47.42
2018-03-20T02:08:04.236Z,47.42
2018-03-20T02:08:04.833Z,47.42
2018-03-20T02:08:05.434Z,47.32
2018-03-20T02:08:06.033Z,47.32
2018-03-20T02:08:06.632Z,47.42
2018-03-20T02:08:07.234Z,47.42
2018-03-20T02:08:07.833Z,47.42
2018-03-20T02:09:02.344Z,48.27
2018-03-20T02:09:02.915Z,48.18
2018-03-20T02:09:03.513Z,48.36
2018-03-20T02:09:04.112Z,48.46
2018-03-20T02:09:04.712Z,48.36
2018-03-20T02:09:05.312Z,48.18
2018-03-20T02:09:05.912Z,48.65
2018-03-20T02:09:06.515Z,48.46
2018-03-20T02:09:59.996Z,48.65
2018-03-20T02:10:00.567Z,48.55
2018-03-20T02:10:01.165Z,48.46
2018-03-20T02:10:01.764Z,48.65
2018-03-20T02:10:02.366Z,48.74
2018-03-20T02:10:02.965Z,48.55
2018-03-20T02:10:03.563Z,48.84
2018-03-20T02:10:04.166Z,48.74
2018-03-20T02:10:58.674Z,47.42
2018-03-20T02:10:59.240Z,47.42
2018-03-20T02:10:59.841Z,47.61
2018-03-20T02:11:00.439Z,47.32
2018-03-20T02:11:01.038Z,47.32
2018-03-20T02:11:01.645Z,47.42
2018-03-20T02:11:02.239Z,47.42
2018-03-20T02:11:02.839Z,47.42
2018-03-20T02:11:56.323Z,48.08
2018-03-20T02:11:56.894Z,47.80
2018-03-20T02:11:57.492Z,47.80
2018-03-20T02:11:58.091Z,47.89
2018-03-20T02:11:58.694Z,47.99
2018-03-20T02:11:59.294Z,48.08
2018-03-20T02:11:59.891Z,48.36
2018-03-20T02:12:00.495Z,48.27
2018-03-20T02:12:55.002Z,48.55
2018-03-20T02:12:55.578Z,48.27
2018-03-20T02:12:56.166Z,48.08
2018-03-20T02:12:56.769Z,48.27
2018-03-20T02:12:57.368Z,48.46
2018-03-20T02:12:57.966Z,48.46
2018-03-20T02:12:58.564Z,48.46
2018-03-20T02:12:59.166Z,48.46
2018-03-20T02:13:52.651Z,47.99
2018-03-20T02:13:53.221Z,47.99
2018-03-20T02:13:53.821Z,47.99
2018-03-20T02:13:54.420Z,47.99
2018-03-20T02:13:55.022Z,48.27
2018-03-20T02:13:55.620Z,48.18
2018-03-20T02:13:56.220Z,47.99
2018-03-20T02:13:56.819Z,48.18
2018-03-20T02:14:51.325Z,47.42
2018-03-20T02:14:51.896Z,47.42
2018-03-20T02:14:52.494Z,47.42
2018-03-20T02:14:53.095Z,47.32
2018-03-20T02:14:53.697Z,47.42
2018-03-20T02:14:54.296Z,47.42
2018-03-20T02:14:54.894Z,47.51
2018-03-20T02:14:55.495Z,47.32
2018-03-20T02:15:48.976Z,47.23
2018-03-20T02:15:49.548Z,47.13
2018-03-20T02:15:50.151Z,47.23
2018-03-20T02:15:50.749Z,47.32
2018-03-20T02:15:51.347Z,47.13
2018-03-20T02:15:51.947Z,47.23
2018-03-20T02:15:52.548Z,47.82
2018-03-20T02:15:53.148Z,47.23
2018-03-20T02:16:47.653Z,45.90
2018-03-20T02:16:48.224Z,46.21
2018-03-20T02:16:48.823Z,46.00
2018-03-20T02:16:49.422Z,45.90
2018-03-20T02:16:50.022Z,45.90
2018-03-20T02:16:50.624Z,46.09
2018-03-20T02:16:51.221Z,46.09
2018-03-20T02:16:51.821Z,46.09
2018-03-20T02:17:45.305Z,46.56
2018-03-20T02:17:45.875Z,46.75
2018-03-20T02:17:46.478Z,46.69
2018-03-20T02:17:47.075Z,46.75
2018-03-20T02:17:47.675Z,46.88
2018-03-20T02:17:48.275Z,46.78
2018-03-20T02:17:48.876Z,46.97
2018-03-20T02:17:49.474Z,46.88
2018-03-20T02:18:42.957Z,47.72
2018-03-20T02:18:43.529Z,47.63
2018-03-20T02:18:44.127Z,47.44
2018-03-20T02:18:44.727Z,47.34
2018-03-20T02:18:45.325Z,47.44
2018-03-20T02:18:45.928Z,47.44
2018-03-20T02:18:46.533Z,47.44
2018-03-20T02:18:47.125Z,47.44
2018-03-20T02:19:41.633Z,48.20
2018-03-20T02:19:42.203Z,48.01
2018-03-20T02:19:42.808Z,47.91
2018-03-20T02:19:43.400Z,47.82
2018-03-20T02:19:44.000Z,47.82
2018-03-20T02:19:44.602Z,48.01
2018-03-20T02:19:45.226Z,47.91
2018-03-20T02:19:45.801Z,47.82
2018-03-20T02:20:39.288Z,47.53
2018-03-20T02:20:39.855Z,47.53
2018-03-20T02:20:40.453Z,47.53
2018-03-20T02:20:41.053Z,47.04
2018-03-20T02:20:41.654Z,47.72
2018-03-20T02:20:42.263Z,47.63
2018-03-20T02:20:42.853Z,47.72
2018-03-20T02:20:43.454Z,47.72
2018-03-20T02:21:36.937Z,47.53
2018-03-20T02:21:37.507Z,47.34
2018-03-20T02:21:38.104Z,47.16
2018-03-20T02:21:38.705Z,47.25
2018-03-20T02:21:39.307Z,47.44
2018-03-20T02:21:39.905Z,47.34
2018-03-20T02:21:40.506Z,47.25
2018-03-20T02:21:41.106Z,47.25
2018-03-20T02:22:35.608Z,47.72
2018-03-20T02:22:36.185Z,47.34
2018-03-20T02:22:36.780Z,47.82
2018-03-20T02:22:37.380Z,47.82
2018-03-20T02:22:37.980Z,47.91
2018-03-20T02:22:38.582Z,47.82
2018-03-20T02:22:39.180Z,47.63
2018-03-20T02:22:39.784Z,47.72
2018-03-20T02:23:33.264Z,46.97
2018-03-20T02:23:33.833Z,46.88
2018-03-20T02:23:34.434Z,46.97
2018-03-20T02:23:35.044Z,46.88
2018-03-20T02:23:35.634Z,46.97
2018-03-20T02:23:36.233Z,46.97
2018-03-20T02:23:36.833Z,46.97
2018-03-20T02:23:37.432Z,46.97
2018-03-20T02:24:31.939Z,47.53
2018-03-20T02:24:32.509Z,46.97
2018-03-20T02:24:33.107Z,46.97
2018-03-20T02:24:33.708Z,46.97
2018-03-20T02:24:34.312Z,47.16
2018-03-20T02:24:34.907Z,47.16
2018-03-20T02:24:35.509Z,46.97
2018-03-20T02:24:36.107Z,47.53
2018-03-20T02:25:29.591Z,46.59
2018-03-20T02:25:30.161Z,46.59
2018-03-20T02:25:30.761Z,46.40
2018-03-20T02:25:31.359Z,46.59
2018-03-20T02:25:31.959Z,46.40
2018-03-20T02:25:32.560Z,46.40
2018-03-20T02:25:33.158Z,46.50
2018-03-20T02:25:33.758Z,46.40
2018-03-20T02:26:28.264Z,46.21
2018-03-20T02:26:28.836Z,46.02
2018-03-20T02:26:29.434Z,46.02
2018-03-20T02:26:30.039Z,46.02
2018-03-20T02:26:30.634Z,46.12
2018-03-20T02:26:31.235Z,46.12
2018-03-20T02:26:31.840Z,45.90
2018-03-20T02:26:32.435Z,46.12
2018-03-20T02:27:26.942Z,46.02
2018-03-20T02:27:27.510Z,46.21
2018-03-20T02:27:28.114Z,46.12
2018-03-20T02:27:28.712Z,46.09
2018-03-20T02:27:29.312Z,46.12
2018-03-20T02:27:29.915Z,46.02
2018-03-20T02:27:30.509Z,46.21
2018-03-20T02:27:31.109Z,46.40
2018-03-20T02:28:24.593Z,44.48
2018-03-20T02:28:25.164Z,44.58
2018-03-20T02:28:25.763Z,44.86
2018-03-20T02:28:26.365Z,44.86
2018-03-20T02:28:26.962Z,44.77
2018-03-20T02:28:27.571Z,44.79
2018-03-20T02:28:28.164Z,44.89
2018-03-20T02:28:28.761Z,44.60
2018-03-20T02:29:23.270Z,45.24
2018-03-20T02:29:23.838Z,45.05
2018-03-20T02:29:24.444Z,45.07
2018-03-20T02:29:25.038Z,44.77
2018-03-20T02:29:25.639Z,45.17
2018-03-20T02:29:26.237Z,44.96
2018-03-20T02:29:26.837Z,45.17
2018-03-20T02:29:27.443Z,44.86
2018-03-20T02:30:21.944Z,44.22
2018-03-20T02:30:22.513Z,44.29
2018-03-20T02:30:23.113Z,45.26
2018-03-20T02:30:23.713Z,44.22
2018-03-20T02:30:24.313Z,45.17
2018-03-20T02:30:24.914Z,44.29
2018-03-20T02:30:25.514Z,44.29
2018-03-20T02:30:26.124Z,45.26
2018-03-20T02:31:19.597Z,44.98
2018-03-20T02:31:20.167Z,44.67
2018-03-20T02:31:20.766Z,44.70
2018-03-20T02:31:21.374Z,44.79
2018-03-20T02:31:21.967Z,44.67
2018-03-20T02:31:22.566Z,44.70
2018-03-20T02:31:23.168Z,44.70
2018-03-20T02:31:23.765Z,44.70
2018-03-20T02:32:18.272Z,44.67
2018-03-20T02:32:18.848Z,45.07
2018-03-20T02:32:19.441Z,44.79
2018-03-20T02:32:20.043Z,44.70
2018-03-20T02:32:20.640Z,44.79
2018-03-20T02:32:21.240Z,44.79
2018-03-20T02:32:21.841Z,44.89
2018-03-20T02:32:22.439Z,44.98
2018-03-20T02:33:16.949Z,44.98
2018-03-20T02:33:17.517Z,44.79
2018-03-20T02:33:18.116Z,44.79
2018-03-20T02:33:18.717Z,44.79
2018-03-20T02:33:19.323Z,44.60
2018-03-20T02:33:19.918Z,44.70
2018-03-20T02:33:20.521Z,44.89
2018-03-20T02:33:21.115Z,44.98
2018-03-20T02:34:15.626Z,44.79
2018-03-20T02:34:16.196Z,44.79
2018-03-20T02:34:16.792Z,44.51
2018-03-20T02:34:17.392Z,44.51
2018-03-20T02:34:17.991Z,44.60
2018-03-20T02:34:18.594Z,44.60
2018-03-20T02:34:19.191Z,44.79
2018-03-20T02:34:19.794Z,44.60
2018-03-20T02:35:14.299Z,44.41
2018-03-20T02:35:14.869Z,43.94
2018-03-20T02:35:15.468Z,44.51
2018-03-20T02:35:16.069Z,44.03
2018-03-20T02:35:16.668Z,44.41
2018-03-20T02:35:17.267Z,44.51
2018-03-20T02:35:17.869Z,44.51
2018-03-20T02:35:18.468Z,44.51
2018-03-20T02:36:12.974Z,44.41
2018-03-20T02:36:13.546Z,44.32
2018-03-20T02:36:14.144Z,43.84
2018-03-20T02:36:14.743Z,44.22
2018-03-20T02:36:15.343Z,44.51
2018-03-20T02:36:15.948Z,43.75
2018-03-20T02:36:16.543Z,44.41
2018-03-20T02:36:17.142Z,44.51
2018-03-20T02:37:11.650Z,44.89
2018-03-20T02:37:12.221Z,44.89
2018-03-20T02:37:12.819Z,45.07
2018-03-20T02:37:13.419Z,44.70
2018-03-20T02:37:14.022Z,44.70
2018-03-20T02:37:14.619Z,44.60
2018-03-20T02:37:15.217Z,44.70
2018-03-20T02:37:15.817Z,44.79
2018-03-20T02:38:10.326Z,46.02
2018-03-20T02:38:10.895Z,45.93
2018-03-20T02:38:11.497Z,45.64
2018-03-20T02:38:12.095Z,45.93
2018-03-20T02:38:12.694Z,45.45
2018-03-20T02:38:13.296Z,45.83
2018-03-20T02:38:13.897Z,45.74
2018-03-20T02:38:14.505Z,45.55
2018-03-20T02:39:08.999Z,46.09
2018-03-20T02:39:09.573Z,46.09
2018-03-20T02:39:10.171Z,46.21
2018-03-20T02:39:10.770Z,46.02
2018-03-20T02:39:11.371Z,46.19
2018-03-20T02:39:11.971Z,46.12
2018-03-20T02:39:12.570Z,46.00
2018-03-20T02:39:13.171Z,46.37
2018-03-20T02:56:30.308Z,35.30
2018-03-20T02:56:30.880Z,35.58
2018-03-20T02:56:31.479Z,35.58
2018-03-20T02:56:32.078Z,35.49
2018-03-20T02:56:32.680Z,35.58
2018-03-20T02:56:33.277Z,35.68
2018-03-20T02:56:33.878Z,35.58
2018-03-20T02:56:34.479Z,35.30
2018-03-20T02:57:28.985Z,33.60
2018-03-20T02:57:29.555Z,33.50
2018-03-20T02:57:30.155Z,33.50
2018-03-20T02:57:30.754Z,33.79
2018-03-20T02:57:31.354Z,33.41
2018-03-20T02:57:31.955Z,33.50
2018-03-20T02:57:32.554Z,33.79
2018-03-20T02:57:33.156Z,33.50
2018-03-20T02:58:27.663Z,32.28
2018-03-20T02:58:28.232Z,32.28
2018-03-20T02:58:28.831Z,32.37
2018-03-20T02:58:29.430Z,32.37
2018-03-20T02:58:30.032Z,32.28
2018-03-20T02:58:30.631Z,32.37
2018-03-20T02:58:31.231Z,32.37
2018-03-20T02:58:31.831Z,32.37
2018-03-20T02:59:26.338Z,32.65
2018-03-20T02:59:26.906Z,32.65
2018-03-20T02:59:27.507Z,32.65
2018-03-20T02:59:28.107Z,32.65
2018-03-20T02:59:28.707Z,32.65
2018-03-20T02:59:29.307Z,32.56
2018-03-20T02:59:29.907Z,32.56
2018-03-20T02:59:30.508Z,32.46
2018-03-20T03:00:23.991Z,32.75
2018-03-20T03:00:24.561Z,32.93
2018-03-20T03:00:25.169Z,32.84
2018-03-20T03:00:25.762Z,32.84
2018-03-20T03:00:26.362Z,32.75
2018-03-20T03:00:26.961Z,32.84
2018-03-20T03:00:27.568Z,32.84
2018-03-20T03:00:28.161Z,32.65
2018-03-20T03:01:22.666Z,32.46
2018-03-20T03:01:23.236Z,32.37
2018-03-20T03:01:23.835Z,32.46
2018-03-20T03:01:24.435Z,32.56
2018-03-20T03:01:25.036Z,32.18
2018-03-20T03:01:25.633Z,32.37
2018-03-20T03:01:26.233Z,32.28
2018-03-20T03:01:26.837Z,32.18
2018-03-20T03:02:21.342Z,31.99
2018-03-20T03:02:21.912Z,32.28
2018-03-20T03:02:22.512Z,31.99
2018-03-20T03:02:23.111Z,31.99
2018-03-20T03:02:23.712Z,31.90
2018-03-20T03:02:24.313Z,32.28
2018-03-20T03:02:24.912Z,32.28
2018-03-20T03:02:25.511Z,32.18
2018-03-20T03:03:20.024Z,31.14
2018-03-20T03:03:20.588Z,31.14
2018-03-20T03:03:21.190Z,31.14
2018-03-20T03:03:21.788Z,31.14
2018-03-20T03:03:22.387Z,31.23
2018-03-20T03:03:22.987Z,30.85
2018-03-20T03:03:23.588Z,31.14
2018-03-20T03:03:24.187Z,31.04
2018-03-20T03:04:18.695Z,30.10
2018-03-20T03:04:19.265Z,30.00
2018-03-20T03:04:19.867Z,30.10
2018-03-20T03:04:20.464Z,30.19
2018-03-20T03:04:21.062Z,30.10
2018-03-20T03:04:21.663Z,30.19
2018-03-20T03:04:22.263Z,30.00
2018-03-20T03:04:22.862Z,30.19
2018-03-20T03:05:17.371Z,29.34
2018-03-20T03:05:17.941Z,29.34
2018-03-20T03:05:18.540Z,29.34
2018-03-20T03:05:19.140Z,29.53
2018-03-20T03:05:19.741Z,29.34
2018-03-20T03:05:20.338Z,29.43
2018-03-20T03:05:20.947Z,29.34
2018-03-20T03:05:21.539Z,29.24
2018-03-20T03:06:15.025Z,28.77
2018-03-20T03:06:15.593Z,28.77
2018-03-20T03:06:16.193Z,28.67
2018-03-20T03:06:16.792Z,28.96
2018-03-20T03:06:17.392Z,28.67
2018-03-20T03:06:17.995Z,28.86
2018-03-20T03:06:18.591Z,28.96
2018-03-20T03:06:19.191Z,28.77
2018-03-20T03:07:13.696Z,28.11
2018-03-20T03:07:14.267Z,28.11
2018-03-20T03:07:14.867Z,28.20
2018-03-20T03:07:15.468Z,28.20
2018-03-20T03:07:16.070Z,28.11
2018-03-20T03:07:16.666Z,28.11
2018-03-20T03:07:17.266Z,28.11
2018-03-20T03:07:17.867Z,28.11
2018-03-20T03:08:12.376Z,28.11
2018-03-20T03:08:12.944Z,28.11
2018-03-20T03:08:13.543Z,27.73
2018-03-20T03:08:14.143Z,28.39
2018-03-20T03:08:14.743Z,27.92
2018-03-20T03:08:15.342Z,28.39
2018-03-20T03:08:15.946Z,28.39
2018-03-20T03:08:16.540Z,28.30
2018-03-20T03:09:11.047Z,28.20
2018-03-20T03:09:11.619Z,28.20
2018-03-20T03:09:12.236Z,28.30
2018-03-20T03:09:12.818Z,28.20
2018-03-20T03:09:13.421Z,28.39
2018-03-20T03:09:14.018Z,28.20
2018-03-20T03:09:14.629Z,28.30
2018-03-20T03:09:15.219Z,28.11
2018-03-20T03:10:09.724Z,28.02
2018-03-20T03:10:10.294Z,28.20
2018-03-20T03:10:10.894Z,28.02
2018-03-20T03:10:11.495Z,28.02
2018-03-20T03:10:12.094Z,28.11
2018-03-20T03:10:12.693Z,28.02
2018-03-20T03:10:13.294Z,28.20
2018-03-20T03:10:13.892Z,28.11
2018-03-20T03:11:08.401Z,28.30
2018-03-20T03:11:08.970Z,28.11
2018-03-20T03:11:09.570Z,28.11
2018-03-20T03:11:10.173Z,28.30
2018-03-20T03:11:10.769Z,28.58
2018-03-20T03:11:11.369Z,28.39
2018-03-20T03:11:11.969Z,28.39
2018-03-20T03:11:12.569Z,28.77
2018-03-20T03:12:06.054Z,28.96
2018-03-20T03:12:06.623Z,28.96
2018-03-20T03:12:07.222Z,28.96
2018-03-20T03:12:07.823Z,29.05
2018-03-20T03:12:08.423Z,29.05
2018-03-20T03:12:09.023Z,28.96
2018-03-20T03:12:09.623Z,29.05
2018-03-20T03:12:10.221Z,29.05
2018-03-20T03:13:04.728Z,29.72
2018-03-20T03:13:05.299Z,29.72
2018-03-20T03:13:05.897Z,29.81
2018-03-20T03:13:06.500Z,29.72
2018-03-20T03:13:07.098Z,29.83
2018-03-20T03:13:07.699Z,29.62
2018-03-20T03:13:08.297Z,29.62
2018-03-20T03:13:08.898Z,29.72
2018-03-20T03:14:02.381Z,30.47
2018-03-20T03:14:02.950Z,30.30
2018-03-20T03:14:03.550Z,30.58
2018-03-20T03:14:04.150Z,30.40
2018-03-20T03:14:04.750Z,30.85
2018-03-20T03:14:05.350Z,30.58
2018-03-20T03:14:05.949Z,30.38
2018-03-20T03:14:06.555Z,30.40
2018-03-20T03:15:00.033Z,30.77
2018-03-20T03:15:00.603Z,30.68
2018-03-20T03:15:01.202Z,30.68
2018-03-20T03:15:01.802Z,30.68
2018-03-20T03:15:02.414Z,30.58
2018-03-20T03:15:02.998Z,30.68
2018-03-20T03:15:03.599Z,30.68
2018-03-20T03:15:04.201Z,30.68
2018-03-20T03:15:58.707Z,30.87
2018-03-20T03:15:59.279Z,30.96
2018-03-20T03:15:59.877Z,31.25
2018-03-20T03:16:00.476Z,31.25
2018-03-20T03:16:01.075Z,30.96
2018-03-20T03:16:01.679Z,30.96
2018-03-20T03:16:02.276Z,31.06
2018-03-20T03:16:02.877Z,31.25
2018-03-20T03:16:56.358Z,32.57
2018-03-20T03:16:56.930Z,32.67
2018-03-20T03:16:57.529Z,32.57
2018-03-20T03:16:58.128Z,32.39
2018-03-20T03:16:58.730Z,32.39
2018-03-20T03:16:59.329Z,32.39
2018-03-20T03:16:59.928Z,32.39
2018-03-20T03:17:00.530Z,32.39
2018-03-20T03:17:55.036Z,33.90
2018-03-20T03:17:55.606Z,33.43
2018-03-20T03:17:56.208Z,33.52
2018-03-20T03:17:56.804Z,33.33
2018-03-20T03:17:57.404Z,33.33
2018-03-20T03:17:58.003Z,33.43
2018-03-20T03:17:58.604Z,33.43
2018-03-20T03:17:59.202Z,33.52
2018-03-20T03:18:53.713Z,33.71
2018-03-20T03:18:54.280Z,33.81
2018-03-20T03:18:54.880Z,33.81
2018-03-20T03:18:55.480Z,33.52
2018-03-20T03:18:56.081Z,33.90
2018-03-20T03:18:56.681Z,33.62
2018-03-20T03:18:57.279Z,33.52
2018-03-20T03:18:57.878Z,33.62
2018-03-20T03:19:52.387Z,34.56
2018-03-20T03:19:52.957Z,34.84
2018-03-20T03:19:53.556Z,34.47
2018-03-20T03:19:54.157Z,34.38
2018-03-20T03:19:54.756Z,34.56
2018-03-20T03:19:55.356Z,35.13
2018-03-20T03:19:55.955Z,35.13
2018-03-20T03:19:56.555Z,34.94
2018-03-20T03:20:51.061Z,35.89
2018-03-20T03:20:51.631Z,35.89
2018-03-20T03:20:52.231Z,36.27
2018-03-20T03:20:52.830Z,36.55
2018-03-20T03:20:53.430Z,36.46
2018-03-20T03:20:54.030Z,36.36
2018-03-20T03:20:54.632Z,36.27
2018-03-20T03:20:55.231Z,36.36
2018-03-20T03:21:49.739Z,36.83
2018-03-20T03:21:50.309Z,36.93
2018-03-20T03:21:50.907Z,36.74
2018-03-20T03:21:51.506Z,36.93
2018-03-20T03:21:52.106Z,37.02
2018-03-20T03:21:52.707Z,36.83
2018-03-20T03:21:53.307Z,37.02
2018-03-20T03:21:53.906Z,37.12
2018-03-20T03:22:48.412Z,37.97
2018-03-20T03:22:48.987Z,37.97
2018-03-20T03:22:49.583Z,37.69
2018-03-20T03:22:50.183Z,37.69
2018-03-20T03:22:50.783Z,37.69
2018-03-20T03:22:51.383Z,37.50
2018-03-20T03:22:51.982Z,37.59
2018-03-20T03:22:52.583Z,37.78
2018-03-20T03:23:46.067Z,39.01
2018-03-20T03:23:46.636Z,39.01
2018-03-20T03:23:47.235Z,39.01
2018-03-20T03:23:47.836Z,38.73
2018-03-20T03:23:48.435Z,38.82
2018-03-20T03:23:49.035Z,39.01
2018-03-20T03:23:49.636Z,38.82
2018-03-20T03:23:50.237Z,38.82
2018-03-20T03:24:44.749Z,39.87
2018-03-20T03:24:45.311Z,40.34
2018-03-20T03:24:45.911Z,40.44
2018-03-20T03:24:46.509Z,39.87
2018-03-20T03:24:47.109Z,40.44
2018-03-20T03:24:47.710Z,40.06
2018-03-20T03:24:48.309Z,40.44
2018-03-20T03:24:48.960Z,40.44
2018-03-20T03:25:42.395Z,40.91
2018-03-20T03:25:42.963Z,40.63
2018-03-20T03:25:43.563Z,40.81
2018-03-20T03:25:44.160Z,41.00
2018-03-20T03:25:44.761Z,40.72
2018-03-20T03:25:45.361Z,40.53
2018-03-20T03:25:45.959Z,40.72
2018-03-20T03:25:46.559Z,40.72
2018-03-20T03:26:41.079Z,41.95
2018-03-20T03:26:41.637Z,41.85
2018-03-20T03:26:42.239Z,41.76
2018-03-20T03:26:42.837Z,41.95
2018-03-20T03:26:43.437Z,41.95
2018-03-20T03:26:44.039Z,41.95
2018-03-20T03:26:44.637Z,42.04
2018-03-20T03:26:45.237Z,41.95
2018-03-20T03:27:39.756Z,43.18
2018-03-20T03:27:40.318Z,43.37
2018-03-20T03:27:40.916Z,43.46
2018-03-20T03:27:41.512Z,43.46
2018-03-20T03:27:42.112Z,43.37
2018-03-20T03:27:42.711Z,43.18
2018-03-20T03:27:43.311Z,43.46
2018-03-20T03:27:43.910Z,43.37
2018-03-20T03:28:37.401Z,44.32
2018-03-20T03:28:37.967Z,44.51
2018-03-20T03:28:38.566Z,44.41
2018-03-20T03:28:39.165Z,44.51
2018-03-20T03:28:39.765Z,44.22
2018-03-20T03:28:40.366Z,44.03
2018-03-20T03:28:40.965Z,44.22
2018-03-20T03:28:41.566Z,44.41
2018-03-20T03:29:36.071Z,46.12
2018-03-20T03:29:36.642Z,46.40
2018-03-20T03:29:37.240Z,46.31
2018-03-20T03:29:37.841Z,46.31
2018-03-20T03:29:38.439Z,46.31
2018-03-20T03:29:39.041Z,46.21
2018-03-20T03:29:39.639Z,46.31
2018-03-20T03:29:40.240Z,46.21
2018-03-20T03:30:33.725Z,45.93
2018-03-20T03:30:34.294Z,46.02
2018-03-20T03:30:34.894Z,46.02
2018-03-20T03:30:35.493Z,46.02
2018-03-20T03:30:36.102Z,46.02
2018-03-20T03:30:36.694Z,46.02
2018-03-20T03:30:37.293Z,46.02
2018-03-20T03:30:37.894Z,46.02
2018-03-20T03:31:31.378Z,46.88
2018-03-20T03:31:31.945Z,46.78
2018-03-20T03:31:32.545Z,46.88
2018-03-20T03:31:33.146Z,46.97
2018-03-20T03:31:33.745Z,46.88
2018-03-20T03:31:34.345Z,46.88
2018-03-20T03:31:34.946Z,46.88
2018-03-20T03:31:35.545Z,46.88
2018-03-20T03:32:30.051Z,47.44
2018-03-20T03:32:30.620Z,46.97
2018-03-20T03:32:31.219Z,46.97
2018-03-20T03:32:31.819Z,47.34
2018-03-20T03:32:32.420Z,47.44